createdAt,value
2023-04-10T00:00:25.426Z,387
2023-04-10T00:01:27.472Z,384
2023-04-10T00:02:24.414Z,393
2023-04-10T00:03:24.357Z,389
2023-04-10T00:05:23.963Z,388
2023-04-10T00:06:24.073Z,387
2023-04-10T00:07:23.895Z,383
2023-04-10T00:08:23.678Z,389
2023-04-10T00:10:24.463Z,389
2023-04-10T00:11:23.861Z,384
2023-04-10T00:12:23.736Z,374
2023-04-10T00:13:23.832Z,375
2023-04-10T00:14:24.508Z,382
2023-04-10T00:15:23.354Z,374
2023-04-10T00:17:23.822Z,388
2023-04-10T00:18:23.688Z,381
2023-04-10T00:19:24.049Z,378
2023-04-10T00:20:23.821Z,382
2023-04-10T00:21:28.874Z,369
2023-04-10T00:23:24.152Z,371
2023-04-10T00:24:24.280Z,368
2023-04-10T00:25:23.493Z,375
2023-04-10T00:27:24.174Z,386
2023-04-10T00:28:23.616Z,382
2023-04-10T00:29:23.503Z,381
2023-04-10T00:30:23.643Z,372
2023-04-10T00:31:37.594Z,374
2023-04-10T00:32:24.085Z,370
2023-04-10T00:33:23.792Z,376
2023-04-10T00:34:24.436Z,379
2023-04-10T00:35:23.630Z,380
2023-04-10T00:37:23.398Z,383
2023-04-10T00:38:24.171Z,389
2023-04-10T00:40:23.968Z,387
2023-04-10T00:42:23.617Z,393
2023-04-10T00:43:23.527Z,385
2023-04-10T00:45:23.943Z,390
2023-04-10T00:46:24.108Z,385
2023-04-10T00:47:23.656Z,383
2023-04-10T00:48:23.626Z,390
2023-04-10T00:49:23.869Z,389
2023-04-10T00:50:24.082Z,380
2023-04-10T00:51:24.440Z,374
2023-04-10T00:52:23.206Z,384
2023-04-10T00:53:23.649Z,386
2023-04-10T00:54:23.424Z,384
2023-04-10T00:56:23.346Z,382
2023-04-10T00:57:23.710Z,377
2023-04-10T00:59:24.102Z,374
2023-04-10T01:00:25.208Z,377
2023-04-10T01:01:23.579Z,384
2023-04-10T01:02:24.005Z,383
2023-04-10T01:03:23.601Z,378
2023-04-10T01:04:23.973Z,380
2023-04-10T01:05:23.805Z,378
2023-04-10T01:06:24.266Z,383
2023-04-10T01:07:23.326Z,378
2023-04-10T01:08:23.571Z,373
2023-04-10T01:09:23.949Z,375
2023-04-10T01:11:24.335Z,367
2023-04-10T01:12:24.504Z,370
2023-04-10T01:14:23.636Z,366
2023-04-10T01:15:24.090Z,371
2023-04-10T01:16:23.514Z,370
2023-04-10T01:18:23.230Z,380
2023-04-10T01:20:24.149Z,379
2023-04-10T01:22:23.901Z,388
2023-04-10T01:23:23.485Z,380
2023-04-10T01:25:23.347Z,389
2023-04-10T01:26:24.006Z,383
2023-04-10T01:28:23.577Z,387
2023-04-10T01:29:23.642Z,391
2023-04-10T01:30:23.977Z,387
2023-04-10T01:31:24.134Z,389
2023-04-10T01:32:23.368Z,388
2023-04-10T01:33:23.625Z,387
2023-04-10T01:34:23.490Z,397
2023-04-10T01:35:24.312Z,386
2023-04-10T01:36:23.519Z,379
2023-04-10T01:37:23.342Z,388
2023-04-10T01:38:24.150Z,400
2023-04-10T01:39:24.320Z,392
2023-04-10T01:40:24.871Z,385
2023-04-10T01:41:24.303Z,375
2023-04-10T01:43:23.769Z,384
2023-04-10T01:46:24.105Z,375
2023-04-10T01:47:24.187Z,374
2023-04-10T01:48:23.708Z,379
2023-04-10T01:49:23.580Z,375
2023-04-10T01:50:24.450Z,382
2023-04-10T01:51:23.732Z,376
2023-04-10T01:52:23.779Z,374
2023-04-10T01:53:23.933Z,375
2023-04-10T01:54:23.706Z,376
2023-04-10T01:55:23.671Z,379
2023-04-10T01:56:23.479Z,380
2023-04-10T01:58:24.220Z,394
2023-04-10T01:59:24.284Z,398
2023-04-10T02:00:24.893Z,402
2023-04-10T02:01:29.692Z,397
2023-04-10T02:02:24.389Z,394
2023-04-10T02:03:24.201Z,378
2023-04-10T02:05:23.928Z,384
2023-04-10T02:06:23.743Z,381
2023-04-10T02:07:23.060Z,387
2023-04-10T02:08:24.301Z,380
2023-04-10T02:09:23.725Z,378
2023-04-10T02:10:24.587Z,398
2023-04-10T02:11:23.565Z,403
2023-04-10T02:12:24.390Z,394
2023-04-10T02:13:23.778Z,382
2023-04-10T02:14:24.641Z,376
2023-04-10T02:15:23.871Z,383
2023-04-10T02:16:24.054Z,387
2023-04-10T02:17:24.076Z,381
2023-04-10T02:18:23.749Z,383
2023-04-10T02:19:23.638Z,390
2023-04-10T02:20:24.064Z,385
2023-04-10T02:21:23.500Z,389
2023-04-10T02:22:23.448Z,385
2023-04-10T02:23:24.168Z,382
2023-04-10T02:24:23.619Z,386
2023-04-10T02:25:23.988Z,384
2023-04-10T02:26:24.137Z,392
2023-04-10T02:27:23.772Z,389
2023-04-10T02:28:23.719Z,396
2023-04-10T02:29:23.552Z,390
2023-04-10T02:30:24.296Z,382
2023-04-10T02:31:23.612Z,390
2023-04-10T02:32:24.064Z,399
2023-04-10T02:33:23.649Z,394
2023-04-10T02:34:23.969Z,397
2023-04-10T02:35:23.279Z,390
2023-04-10T02:36:23.771Z,387
2023-04-10T02:37:24.044Z,395
2023-04-10T02:38:24.338Z,400
2023-04-10T02:39:24.269Z,388
2023-04-10T02:40:24.574Z,387
2023-04-10T02:41:23.911Z,390
2023-04-10T02:42:24.225Z,392
2023-04-10T02:43:23.322Z,386
2023-04-10T02:44:24.099Z,391
2023-04-10T02:45:23.935Z,384
2023-04-10T02:46:23.599Z,391
2023-04-10T02:47:23.618Z,402
2023-04-10T02:48:23.246Z,410
2023-04-10T02:49:23.962Z,401
2023-04-10T02:50:24.581Z,393
2023-04-10T02:51:24.266Z,394
2023-04-10T02:52:23.714Z,389
2023-04-10T02:53:24.281Z,391
2023-04-10T02:54:24.138Z,385
2023-04-10T02:55:23.792Z,380
2023-04-10T02:56:23.687Z,388
2023-04-10T02:57:23.760Z,387
2023-04-10T02:58:23.545Z,385
2023-04-10T02:59:23.430Z,390
2023-04-10T03:00:24.742Z,396
2023-04-10T03:01:24.199Z,383
2023-04-10T03:02:24.817Z,389
2023-04-10T03:03:24.039Z,397
2023-04-10T03:04:24.017Z,401
2023-04-10T03:05:23.419Z,398
2023-04-10T03:06:23.888Z,394
2023-04-10T03:08:23.753Z,395
2023-04-10T03:10:23.475Z,383
2023-04-10T03:11:23.527Z,390
2023-04-10T03:12:23.756Z,405
2023-04-10T03:13:23.636Z,397
2023-04-10T03:14:23.447Z,402
2023-04-10T03:15:23.460Z,399
2023-04-10T03:17:23.761Z,405
2023-04-10T03:19:23.992Z,404
2023-04-10T03:20:24.222Z,409
2023-04-10T03:21:23.735Z,414
2023-04-10T03:22:23.423Z,402
2023-04-10T03:23:23.586Z,404
2023-04-10T03:24:23.513Z,412
2023-04-10T03:25:23.650Z,413
2023-04-10T03:26:23.585Z,412
2023-04-10T03:27:23.783Z,414
2023-04-10T03:29:24.088Z,412
2023-04-10T03:31:23.722Z,413
2023-04-10T03:32:23.960Z,408
2023-04-10T03:33:24.008Z,410
2023-04-10T03:35:27.543Z,425
2023-04-10T03:36:23.752Z,423
2023-04-10T03:37:23.722Z,429
2023-04-10T03:38:23.622Z,435
2023-04-10T03:39:24.141Z,420
2023-04-10T03:40:23.512Z,414
2023-04-10T03:41:25.414Z,421
2023-04-10T03:42:24.075Z,430
2023-04-10T03:43:23.263Z,420
2023-04-10T03:44:23.814Z,417
2023-04-10T03:45:24.280Z,415
2023-04-10T03:46:23.190Z,421
2023-04-10T03:47:23.242Z,430
2023-04-10T03:48:23.524Z,422
2023-04-10T03:49:23.754Z,426
2023-04-10T03:50:24.171Z,425
2023-04-10T03:51:23.622Z,423
2023-04-10T03:52:23.222Z,427
2023-04-10T03:53:24.228Z,417
2023-04-10T03:54:23.023Z,411
2023-04-10T03:55:23.954Z,417
2023-04-10T03:56:23.918Z,422
2023-04-10T03:57:23.711Z,417
2023-04-10T03:58:23.262Z,418
2023-04-10T03:59:31.048Z,408
2023-04-10T04:00:25.221Z,405
2023-04-10T04:01:23.780Z,414
2023-04-10T04:02:24.032Z,410
2023-04-10T04:03:23.701Z,414
2023-04-10T04:04:23.363Z,405
2023-04-10T04:05:23.595Z,398
2023-04-10T04:06:23.918Z,402
2023-04-10T04:07:23.947Z,400
2023-04-10T04:08:23.936Z,402
2023-04-10T04:10:24.231Z,398
2023-04-10T04:11:23.316Z,402
2023-04-10T04:12:23.642Z,399
2023-04-10T04:13:23.746Z,398
2023-04-10T04:14:23.660Z,394
2023-04-10T04:15:23.826Z,390
2023-04-10T04:16:23.782Z,391
2023-04-10T04:17:24.394Z,393
2023-04-10T04:18:23.735Z,390
2023-04-10T04:19:23.768Z,386
2023-04-10T04:20:23.886Z,393
2023-04-10T04:21:24.405Z,397
2023-04-10T04:22:24.362Z,399
2023-04-10T04:23:23.442Z,397
2023-04-10T04:24:24.022Z,390
2023-04-10T04:25:24.958Z,380
2023-04-10T04:26:23.953Z,388
2023-04-10T04:27:24.668Z,396
2023-04-10T04:28:24.094Z,408
2023-04-10T04:29:23.736Z,403
2023-04-10T04:30:23.607Z,404
2023-04-10T04:31:23.887Z,418
2023-04-10T04:32:23.580Z,408
2023-04-10T04:34:23.209Z,397
2023-04-10T04:35:23.303Z,393
2023-04-10T04:36:23.798Z,386
2023-04-10T04:37:23.896Z,389
2023-04-10T04:38:24.376Z,388
2023-04-10T04:39:24.197Z,383
2023-04-10T04:40:23.482Z,392
2023-04-10T04:41:23.716Z,394
2023-04-10T04:42:23.115Z,393
2023-04-10T04:43:23.996Z,397
2023-04-10T04:44:24.718Z,391
2023-04-10T04:45:25.200Z,395
2023-04-10T04:46:24.058Z,404
2023-04-10T04:47:24.659Z,409
2023-04-10T04:48:23.981Z,418
2023-04-10T04:50:24.132Z,410
2023-04-10T04:53:23.778Z,405
2023-04-10T04:54:24.044Z,397
2023-04-10T04:55:24.307Z,398
2023-04-10T04:58:23.462Z,395
2023-04-10T04:59:23.107Z,400
2023-04-10T05:00:25.044Z,403
2023-04-10T05:01:23.625Z,412
2023-04-10T05:02:23.906Z,417
2023-04-10T05:03:24.030Z,425
2023-04-10T05:04:24.167Z,427
2023-04-10T05:06:23.766Z,422
2023-04-10T05:07:24.468Z,420
2023-04-10T05:08:24.348Z,421
2023-04-10T05:09:23.896Z,429
2023-04-10T05:10:23.832Z,430
2023-04-10T05:11:28.715Z,426
2023-04-10T05:13:23.951Z,419
2023-04-10T05:14:23.771Z,428
2023-04-10T05:15:24.120Z,437
2023-04-10T05:16:23.617Z,443
2023-04-10T05:17:23.686Z,440
2023-04-10T05:18:24.194Z,435
2023-04-10T05:19:23.511Z,433
2023-04-10T05:20:23.946Z,434
2023-04-10T05:21:24.054Z,430
2023-04-10T05:22:23.497Z,429
2023-04-10T05:24:23.929Z,427
2023-04-10T05:25:23.919Z,431
2023-04-10T05:26:24.565Z,441
2023-04-10T05:27:24.460Z,431
2023-04-10T05:28:24.582Z,438
2023-04-10T05:29:24.222Z,440
2023-04-10T05:30:25.064Z,435
2023-04-10T05:31:37.542Z,432
2023-04-10T05:32:23.432Z,426
2023-04-10T05:33:24.008Z,436
2023-04-10T05:34:23.461Z,445
2023-04-10T05:35:24.165Z,433
2023-04-10T05:36:24.280Z,429
2023-04-10T05:37:23.751Z,433
2023-04-10T05:38:23.545Z,431
2023-04-10T05:39:23.947Z,436
2023-04-10T05:40:24.097Z,435
2023-04-10T05:41:23.602Z,440
2023-04-10T05:42:24.215Z,448
2023-04-10T05:43:23.678Z,447
2023-04-10T05:44:23.764Z,445
2023-04-10T05:45:24.885Z,444
2023-04-10T05:46:24.025Z,438
2023-04-10T05:47:23.685Z,453
2023-04-10T05:48:23.618Z,437
2023-04-10T05:49:23.988Z,422
2023-04-10T05:50:24.553Z,434
2023-04-10T05:51:23.934Z,440
2023-04-10T05:52:24.031Z,435
2023-04-10T05:53:23.599Z,434
2023-04-10T05:54:24.171Z,442
2023-04-10T05:55:24.006Z,433
2023-04-10T05:56:23.606Z,437
2023-04-10T05:57:23.584Z,427
2023-04-10T05:59:23.716Z,424
2023-04-10T06:00:25.141Z,425
2023-04-10T06:01:23.629Z,427
2023-04-10T06:02:23.977Z,442
2023-04-10T06:03:24.575Z,431
2023-04-10T06:04:24.416Z,416
2023-04-10T06:05:24.858Z,419
2023-04-10T06:06:23.501Z,425
2023-04-10T06:07:24.612Z,412
2023-04-10T06:08:24.624Z,407
2023-04-10T06:09:23.871Z,422
2023-04-10T06:10:23.935Z,419
2023-04-10T06:11:23.900Z,421
2023-04-10T06:12:23.591Z,417
2023-04-10T06:13:23.556Z,413
2023-04-10T06:14:23.851Z,406
2023-04-10T06:15:24.723Z,399
2023-04-10T06:16:24.283Z,395
2023-04-10T06:17:23.680Z,388
2023-04-10T06:18:23.991Z,399
2023-04-10T06:19:23.901Z,401
2023-04-10T06:20:23.914Z,399
2023-04-10T06:21:23.969Z,393
2023-04-10T06:22:23.816Z,397
2023-04-10T06:23:23.394Z,400
2023-04-10T06:24:24.855Z,402
2023-04-10T06:25:24.667Z,394
2023-04-10T06:26:23.900Z,392
2023-04-10T06:27:23.846Z,386
2023-04-10T06:28:24.277Z,384
2023-04-10T06:29:24.074Z,386
2023-04-10T06:30:24.807Z,387
2023-04-10T06:31:23.946Z,393
2023-04-10T06:32:24.379Z,394
2023-04-10T06:33:24.278Z,386
2023-04-10T06:34:24.041Z,383
2023-04-10T06:35:23.883Z,392
2023-04-10T06:36:23.405Z,398
2023-04-10T06:37:23.832Z,388
2023-04-10T06:38:23.959Z,387
2023-04-10T06:39:24.472Z,380
2023-04-10T06:40:23.300Z,390
2023-04-10T06:42:23.628Z,382
2023-04-10T06:43:23.616Z,381
2023-04-10T06:44:24.297Z,384
2023-04-10T06:45:23.761Z,381
2023-04-10T06:46:23.875Z,378
2023-04-10T06:47:24.175Z,381
2023-04-10T06:48:23.626Z,385
2023-04-10T06:50:24.710Z,381
2023-04-10T06:51:24.132Z,374
2023-04-10T06:52:23.329Z,372
2023-04-10T06:54:27.709Z,377
2023-04-10T06:55:23.560Z,372
2023-04-10T06:56:24.324Z,386
2023-04-10T06:57:23.700Z,378
2023-04-10T06:58:23.715Z,367
2023-04-10T06:59:23.417Z,376
2023-04-10T07:00:25.074Z,381
2023-04-10T07:01:24.814Z,377
2023-04-10T07:03:23.796Z,381
2023-04-10T07:04:23.756Z,384
2023-04-10T07:05:23.915Z,368
2023-04-10T07:06:24.066Z,372
2023-04-10T07:07:23.556Z,379
2023-04-10T07:08:24.172Z,380
2023-04-10T07:09:23.684Z,375
2023-04-10T07:10:24.130Z,380
2023-04-10T07:11:24.141Z,387
2023-04-10T07:12:23.672Z,375
2023-04-10T07:13:24.168Z,373
2023-04-10T07:14:23.568Z,369
2023-04-10T07:15:23.857Z,375
2023-04-10T07:16:23.475Z,371
2023-04-10T07:17:23.604Z,374
2023-04-10T07:18:23.715Z,376
2023-04-10T07:19:24.700Z,379
2023-04-10T07:20:23.972Z,372
2023-04-10T07:21:24.140Z,369
2023-04-10T07:22:23.772Z,364
2023-04-10T07:23:23.929Z,366
2023-04-10T07:24:23.950Z,370
2023-04-10T07:25:24.179Z,375
2023-04-10T07:26:23.645Z,367
2023-04-10T07:27:23.727Z,369
2023-04-10T07:28:24.137Z,373
2023-04-10T07:30:24.626Z,368
2023-04-10T07:31:23.771Z,370
2023-04-10T07:32:24.110Z,369
2023-04-10T07:33:23.927Z,374
2023-04-10T07:34:23.616Z,371
2023-04-10T07:35:24.058Z,367
2023-04-10T07:36:28.843Z,362
2023-04-10T07:37:23.991Z,367
2023-04-10T07:38:23.850Z,370
2023-04-10T07:39:23.927Z,368
2023-04-10T07:40:23.663Z,366
2023-04-10T07:41:24.640Z,373
2023-04-10T07:42:24.331Z,376
2023-04-10T07:43:23.815Z,373
2023-04-10T07:44:24.118Z,363
2023-04-10T07:45:24.430Z,370
2023-04-10T07:46:24.317Z,373
2023-04-10T07:47:24.417Z,366
2023-04-10T07:48:24.160Z,378
2023-04-10T07:49:23.376Z,380
2023-04-10T07:50:24.430Z,373
2023-04-10T07:51:23.922Z,366
2023-04-10T07:52:23.640Z,373
2023-04-10T07:53:23.753Z,367
2023-04-10T07:54:23.453Z,361
2023-04-10T07:55:23.489Z,364
2023-04-10T07:56:23.351Z,363
2023-04-10T07:57:24.243Z,366
2023-04-10T07:59:23.905Z,356
2023-04-10T08:00:38.578Z,364
2023-04-10T08:01:23.520Z,366
2023-04-10T08:02:24.460Z,360
2023-04-10T08:03:24.504Z,364
2023-04-10T08:04:24.702Z,363
2023-04-10T08:05:24.381Z,365
2023-04-10T08:06:23.621Z,363
2023-04-10T08:07:23.999Z,368
2023-04-10T08:08:23.178Z,376
2023-04-10T08:09:23.638Z,363
2023-04-10T08:10:24.788Z,364
2023-04-10T08:11:24.065Z,358
2023-04-10T08:12:23.624Z,353
2023-04-10T08:13:23.793Z,355
2023-04-10T08:14:24.417Z,352
2023-04-10T08:15:23.764Z,356
2023-04-10T08:16:23.558Z,352
2023-04-10T08:17:23.122Z,353
2023-04-10T08:18:24.322Z,347
2023-04-10T08:19:24.012Z,338
2023-04-10T08:20:23.433Z,345
2023-04-10T08:21:24.228Z,353
2023-04-10T08:22:24.255Z,352
2023-04-10T08:23:24.280Z,357
2023-04-10T08:24:24.284Z,362
2023-04-10T08:25:23.852Z,361
2023-04-10T08:26:23.679Z,360
2023-04-10T08:27:24.440Z,368
2023-04-10T08:28:23.835Z,361
2023-04-10T08:30:24.302Z,359
2023-04-10T08:31:23.932Z,365
2023-04-10T08:32:23.838Z,350
2023-04-10T08:33:23.208Z,341
2023-04-10T08:34:23.681Z,343
2023-04-10T08:35:24.119Z,355
2023-04-10T08:36:24.079Z,356
2023-04-10T08:37:23.698Z,348
2023-04-10T08:38:23.551Z,344
2023-04-10T08:39:24.200Z,343
2023-04-10T08:40:24.541Z,349
2023-04-10T08:41:24.430Z,348
2023-04-10T08:42:24.294Z,342
2023-04-10T08:43:24.547Z,349
2023-04-10T08:44:23.989Z,353
2023-04-10T08:45:24.087Z,355
2023-04-10T08:46:24.209Z,353
2023-04-10T08:47:23.819Z,345
2023-04-10T08:48:24.850Z,347
2023-04-10T08:49:23.414Z,351
2023-04-10T08:50:23.691Z,353
2023-04-10T08:51:25.830Z,347
2023-04-10T08:52:23.822Z,341
2023-04-10T08:53:24.368Z,348
2023-04-10T08:54:24.272Z,345
2023-04-10T08:55:24.689Z,344
2023-04-10T08:56:23.513Z,346
2023-04-10T08:57:23.338Z,348
2023-04-10T08:58:24.635Z,351
2023-04-10T08:59:23.022Z,354
2023-04-10T09:01:24.198Z,351
2023-04-10T09:02:23.583Z,347
2023-04-10T09:03:24.097Z,350
2023-04-10T09:04:23.656Z,342
2023-04-10T09:05:23.585Z,330
2023-04-10T09:06:23.276Z,344
2023-04-10T09:07:23.300Z,348
2023-04-10T09:09:23.770Z,365
2023-04-10T09:10:23.734Z,355
2023-04-10T09:11:23.634Z,345
2023-04-10T09:12:23.331Z,358
2023-04-10T09:14:23.992Z,360
2023-04-10T09:15:24.013Z,351
2023-04-10T09:16:23.909Z,343
2023-04-10T09:17:24.044Z,348
2023-04-10T09:18:24.282Z,355
2023-04-10T09:19:23.289Z,345
2023-04-10T09:20:24.512Z,350
2023-04-10T09:21:23.320Z,347
2023-04-10T09:22:23.841Z,357
2023-04-10T09:23:23.101Z,360
2023-04-10T09:24:23.629Z,348
2023-04-10T09:25:23.617Z,345
2023-04-10T09:26:24.013Z,352
2023-04-10T09:27:23.985Z,348
2023-04-10T09:28:23.721Z,344
2023-04-10T09:29:23.418Z,350
2023-04-10T09:30:23.474Z,360
2023-04-10T09:31:23.336Z,352
2023-04-10T09:32:23.431Z,345
2023-04-10T09:33:23.311Z,337
2023-04-10T09:34:23.442Z,348
2023-04-10T09:35:23.685Z,344
2023-04-10T09:36:23.529Z,348
2023-04-10T09:37:24.116Z,350
2023-04-10T09:38:23.484Z,360
2023-04-10T09:39:23.315Z,367
2023-04-10T09:40:23.979Z,359
2023-04-10T09:41:24.008Z,353
2023-04-10T09:42:23.363Z,347
2023-04-10T09:43:23.838Z,354
2023-04-10T09:44:24.134Z,352
2023-04-10T09:46:23.597Z,354
2023-04-10T09:47:23.638Z,343
2023-04-10T09:48:23.903Z,341
2023-04-10T09:49:23.772Z,349
2023-04-10T09:50:24.277Z,345
2023-04-10T09:51:23.963Z,347
2023-04-10T09:52:23.682Z,342
2023-04-10T09:53:23.914Z,349
2023-04-10T09:55:23.588Z,353
2023-04-10T09:56:23.449Z,358
2023-04-10T09:57:23.140Z,344
2023-04-10T09:58:23.691Z,343
2023-04-10T10:00:24.589Z,347
2023-04-10T10:01:29.036Z,345
2023-04-10T10:02:23.597Z,337
2023-04-10T10:03:29.054Z,347
2023-04-10T10:04:23.698Z,341
2023-04-10T10:05:23.962Z,335
2023-04-10T10:06:23.396Z,339
2023-04-10T10:07:23.480Z,353
2023-04-10T10:08:24.000Z,345
2023-04-10T10:09:32.233Z,348
2023-04-10T10:10:23.808Z,353
2023-04-10T10:11:23.748Z,354
2023-04-10T10:13:23.906Z,341
2023-04-10T10:14:23.998Z,336
2023-04-10T10:16:24.172Z,344
2023-04-10T10:17:23.416Z,347
2023-04-10T10:18:24.127Z,345
2023-04-10T10:19:23.223Z,336
2023-04-10T10:20:24.106Z,341
2023-04-10T10:21:23.823Z,342
2023-04-10T10:22:24.053Z,331
2023-04-10T10:23:37.970Z,328
2023-04-10T10:24:23.779Z,332
2023-04-10T10:25:24.070Z,339
2023-04-10T10:26:23.973Z,341
2023-04-10T10:27:23.602Z,350
2023-04-10T10:28:23.774Z,359
2023-04-10T10:29:23.750Z,347
2023-04-10T10:30:29.947Z,345
2023-04-10T10:31:23.457Z,341
2023-04-10T10:32:23.668Z,345
2023-04-10T10:33:23.886Z,348
2023-04-10T10:34:24.479Z,346
2023-04-10T10:35:43.427Z,353
2023-04-10T10:36:23.490Z,351
2023-04-10T10:37:42.642Z,352
2023-04-10T10:38:23.726Z,339
2023-04-10T10:39:24.104Z,338
2023-04-10T10:40:23.655Z,353
2023-04-10T10:41:23.624Z,355
2023-04-10T10:43:23.295Z,348
2023-04-10T10:44:24.067Z,337
2023-04-10T10:45:24.013Z,345
2023-04-10T10:46:24.189Z,361
2023-04-10T10:47:24.003Z,357
2023-04-10T10:48:23.653Z,347
2023-04-10T10:49:23.609Z,341
2023-04-10T10:50:24.881Z,342
2023-04-10T10:51:23.444Z,354
2023-04-10T10:52:23.307Z,349
2023-04-10T10:53:23.895Z,347
2023-04-10T10:55:24.266Z,341
2023-04-10T10:56:22.722Z,346
2023-04-10T10:57:23.426Z,343
2023-04-10T10:58:23.477Z,340
2023-04-10T10:59:23.520Z,330
2023-04-10T11:00:24.193Z,339
2023-04-10T11:01:23.812Z,348
2023-04-10T11:02:23.627Z,361
2023-04-10T11:03:23.483Z,345
2023-04-10T11:04:24.100Z,349
2023-04-10T11:05:23.656Z,342
2023-04-10T11:06:23.656Z,348
2023-04-10T11:07:23.259Z,350
2023-04-10T11:08:23.877Z,340
2023-04-10T11:09:23.893Z,345
2023-04-10T11:10:23.299Z,351
2023-04-10T11:11:23.905Z,346
2023-04-10T11:12:24.127Z,344
2023-04-10T11:13:24.034Z,334
2023-04-10T11:14:23.741Z,333
2023-04-10T11:15:23.664Z,332
2023-04-10T11:16:24.189Z,342
2023-04-10T11:17:23.730Z,350
2023-04-10T11:18:23.711Z,344
2023-04-10T11:19:24.037Z,346
2023-04-10T11:20:23.556Z,334
2023-04-10T11:21:23.686Z,343
2023-04-10T11:22:23.785Z,355
2023-04-10T11:23:24.375Z,349
2023-04-10T11:24:23.822Z,342
2023-04-10T11:25:23.693Z,345
2023-04-10T11:26:23.413Z,339
2023-04-10T11:27:23.319Z,326
2023-04-10T11:28:23.810Z,340
2023-04-10T11:29:23.906Z,341
2023-04-10T11:30:23.509Z,335
2023-04-10T11:31:23.311Z,327
2023-04-10T11:32:23.671Z,336
2023-04-10T11:33:23.768Z,334
2023-04-10T11:34:24.013Z,337
2023-04-10T11:35:24.216Z,351
2023-04-10T11:36:23.477Z,341
2023-04-10T11:37:23.538Z,347
2023-04-10T11:38:23.927Z,353
2023-04-10T11:39:24.176Z,350
2023-04-10T11:40:23.275Z,352
2023-04-10T11:41:23.840Z,350
2023-04-10T11:43:23.256Z,347
2023-04-10T11:44:23.215Z,344
2023-04-10T11:46:24.066Z,340
2023-04-10T11:47:23.887Z,348
2023-04-10T11:48:24.085Z,356
2023-04-10T11:50:23.964Z,346
2023-04-10T11:51:23.825Z,338
2023-04-10T11:52:23.710Z,345
2023-04-10T11:53:23.240Z,351
2023-04-10T11:56:23.459Z,337
2023-04-10T11:57:23.408Z,341
2023-04-10T11:58:23.225Z,349
2023-04-10T11:59:23.715Z,344
2023-04-10T12:00:24.236Z,340
2023-04-10T12:01:23.934Z,347
2023-04-10T12:02:23.656Z,345
2023-04-10T12:03:24.426Z,343
2023-04-10T12:04:24.254Z,344
2023-04-10T12:05:24.315Z,351
2023-04-10T12:06:23.598Z,340
2023-04-10T12:07:23.822Z,331
2023-04-10T12:09:23.753Z,341
2023-04-10T12:10:23.493Z,335
2023-04-10T12:11:23.356Z,343
2023-04-10T12:12:23.403Z,357
2023-04-10T12:13:23.332Z,351
2023-04-10T12:14:24.012Z,356
2023-04-10T12:15:23.295Z,357
2023-04-10T12:16:23.912Z,340
2023-04-10T12:17:23.502Z,338
2023-04-10T12:18:28.470Z,349
2023-04-10T12:20:23.418Z,341
2023-04-10T12:21:23.272Z,354
2023-04-10T12:22:23.684Z,356
2023-04-10T12:23:23.602Z,354
2023-04-10T12:24:23.350Z,356
2023-04-10T12:25:23.463Z,351
2023-04-10T12:26:23.679Z,347
2023-04-10T12:27:23.729Z,342
2023-04-10T12:28:23.170Z,346
2023-04-10T12:29:23.811Z,356
2023-04-10T12:30:23.799Z,348
2023-04-10T12:31:23.107Z,349
2023-04-10T12:32:23.693Z,342
2023-04-10T12:33:23.573Z,340
2023-04-10T12:34:23.427Z,335
2023-04-10T12:35:23.549Z,337
2023-04-10T12:36:23.050Z,340
2023-04-10T12:37:23.685Z,343
2023-04-10T12:38:23.510Z,338
2023-04-10T12:39:23.915Z,344
2023-04-10T12:40:24.035Z,359
2023-04-10T12:41:24.397Z,360
2023-04-10T12:42:23.582Z,361
2023-04-10T12:43:23.521Z,360
2023-04-10T12:44:23.503Z,349
2023-04-10T12:45:23.644Z,339
2023-04-10T12:46:23.623Z,344
2023-04-10T12:47:23.830Z,352
2023-04-10T12:48:23.925Z,354
2023-04-10T12:49:23.309Z,355
2023-04-10T12:50:23.809Z,352
2023-04-10T12:51:23.857Z,357
2023-04-10T12:52:23.645Z,353
2023-04-10T12:54:23.405Z,350
2023-04-10T12:55:23.741Z,341
2023-04-10T12:56:23.620Z,349
2023-04-10T12:57:22.992Z,346
2023-04-10T12:58:23.650Z,352
2023-04-10T12:59:23.715Z,346
2023-04-10T13:00:43.140Z,343
2023-04-10T13:02:43.371Z,345
2023-04-10T13:03:23.964Z,347
2023-04-10T13:04:24.096Z,344
2023-04-10T13:05:23.766Z,341
2023-04-10T13:07:22.866Z,343
2023-04-10T13:08:23.483Z,344
2023-04-10T13:09:23.668Z,348
2023-04-10T13:10:23.400Z,349
2023-04-10T13:12:23.062Z,350
2023-04-10T13:13:23.423Z,351
2023-04-10T13:14:23.776Z,350
2023-04-10T13:15:23.999Z,353
2023-04-10T13:17:23.711Z,347
2023-04-10T13:18:23.534Z,351
2023-04-10T13:19:23.484Z,361
2023-04-10T13:21:23.685Z,345
2023-04-10T13:22:23.311Z,343
2023-04-10T13:23:23.576Z,348
2023-04-10T13:24:23.790Z,356
2023-04-10T13:25:23.466Z,354
2023-04-10T13:26:23.514Z,351
2023-04-10T13:27:22.964Z,350
2023-04-10T13:28:23.296Z,348
2023-04-10T13:29:23.646Z,357
2023-04-10T13:30:23.761Z,358
2023-04-10T13:31:23.455Z,347
2023-04-10T13:32:23.747Z,340
2023-04-10T13:33:23.636Z,345
2023-04-10T13:34:23.591Z,346
2023-04-10T13:35:23.418Z,353
2023-04-10T13:36:23.361Z,349
2023-04-10T13:37:23.314Z,345
2023-04-10T13:38:23.606Z,356
2023-04-10T13:39:23.516Z,352
2023-04-10T13:40:23.540Z,339
2023-04-10T13:41:23.220Z,334
2023-04-10T13:42:23.292Z,335
2023-04-10T13:43:23.156Z,334
2023-04-10T13:44:23.602Z,344
2023-04-10T13:45:24.027Z,355
2023-04-10T13:46:23.755Z,356
2023-04-10T13:47:23.579Z,360
2023-04-10T13:48:29.978Z,353
2023-04-10T13:49:23.424Z,348
2023-04-10T13:50:24.019Z,355
2023-04-10T13:51:23.906Z,347
2023-04-10T13:53:24.209Z,340
2023-04-10T13:54:23.513Z,339
2023-04-10T13:55:23.620Z,353
2023-04-10T13:56:23.407Z,359
2023-04-10T13:57:23.769Z,358
2023-04-10T13:58:23.418Z,352
2023-04-10T13:59:23.278Z,354
2023-04-10T14:01:23.635Z,344
2023-04-10T14:03:27.558Z,340
2023-04-10T14:04:23.749Z,344
2023-04-10T14:05:23.588Z,349
2023-04-10T14:06:23.408Z,344
2023-04-10T14:07:23.077Z,349
2023-04-10T14:09:27.164Z,345
2023-04-10T14:10:23.595Z,348
2023-04-10T14:11:23.074Z,350
2023-04-10T14:12:23.706Z,351
2023-04-10T14:13:23.259Z,357
2023-04-10T14:14:23.139Z,344
2023-04-10T14:15:23.673Z,336
2023-04-10T14:16:23.564Z,341
2023-04-10T14:17:23.172Z,342
2023-04-10T14:18:23.182Z,343
2023-04-10T14:19:23.474Z,344
2023-04-10T14:20:23.434Z,342
2023-04-10T14:21:22.931Z,328
2023-04-10T14:22:23.548Z,334
2023-04-10T14:24:23.929Z,333
2023-04-10T14:25:23.647Z,327
2023-04-10T14:26:23.370Z,321
2023-04-10T14:27:24.141Z,329
2023-04-10T14:28:23.613Z,327
2023-04-10T14:29:33.110Z,333
2023-04-10T14:30:23.577Z,339
2023-04-10T14:31:23.482Z,349
2023-04-10T14:32:23.695Z,347
2023-04-10T14:33:23.768Z,350
2023-04-10T14:34:23.263Z,347
2023-04-10T14:35:23.949Z,333
2023-04-10T14:36:23.457Z,346
2023-04-10T14:37:23.535Z,343
2023-04-10T14:38:23.708Z,335
2023-04-10T14:39:24.070Z,327
2023-04-10T14:40:24.255Z,338
2023-04-10T14:41:23.379Z,345
2023-04-10T14:42:23.316Z,344
2023-04-10T14:43:23.430Z,338
2023-04-10T14:44:23.270Z,339
2023-04-10T14:45:23.891Z,341
2023-04-10T14:46:23.363Z,351
2023-04-10T14:47:23.227Z,350
2023-04-10T14:48:23.801Z,346
2023-04-10T14:49:23.332Z,342
2023-04-10T14:50:24.359Z,349
2023-04-10T14:51:23.867Z,348
2023-04-10T14:52:24.108Z,346
2023-04-10T14:53:23.483Z,350
2023-04-10T14:54:23.506Z,358
2023-04-10T14:55:23.472Z,346
2023-04-10T14:56:23.726Z,343
2023-04-10T14:57:23.575Z,340
2023-04-10T14:58:23.154Z,335
2023-04-10T14:59:23.554Z,337
2023-04-10T15:01:31.633Z,334
2023-04-10T15:02:23.622Z,336
2023-04-10T15:03:25.277Z,330